Time;durP1;ratioP1;P1;durP2;ratioP2;P2;SDS_P1;SDS_P2;PMS_P1;PMS_P2;Temp;Humidity;BMP_temperature;BMP_pressure;BME280_temperature;BME280_humidity;BME280_pressure;Samples;Min_cycle;Max_cycle;Signal;HPM_P1;HPM_P2
2021/05/02 00:01:38;;;;;;;2.78;2.05;;;21.50;50.20;;;;;;5032068;28;20036;-36
2021/05/02 00:04:05;;;;;;;2.90;2.30;;;21.50;50.20;;;;;;5017567;28;20033;-35
2021/05/02 00:06:31;;;;;;;3.70;2.28;;;21.50;50.10;;;;;;5047204;28;20048;-34
2021/05/02 00:08:57;;;;;;;2.83;1.90;;;21.50;50.10;;;;;;5029758;28;20032;-35
2021/05/02 00:11:23;;;;;;;3.53;2.15;;;21.50;50.00;;;;;;5036864;28;20378;-35
2021/05/02 00:13:49;;;;;;;7.80;2.20;;;21.50;50.00;;;;;;5031479;28;20083;-35
2021/05/02 00:16:16;;;;;;;3.83;2.55;;;21.50;49.90;;;;;;5045755;28;20225;-34
2021/05/02 00:18:42;;;;;;;3.50;2.30;;;21.60;49.90;;;;;;5049022;28;20469;-35
2021/05/02 00:21:10;;;;;;;3.00;2.15;;;21.60;49.80;;;;;;5030121;28;20037;-35
2021/05/02 00:23:38;;;;;;;3.78;2.20;;;21.60;49.80;;;;;;5016124;28;20067;-44
2021/05/02 00:26:05;;;;;;;3.85;2.42;;;21.50;49.80;;;;;;5028486;28;20057;-35
2021/05/02 00:28:35;;;;;;;2.95;2.47;;;21.40;49.90;;;;;;5027618;28;20036;-35
2021/05/02 00:31:06;;;;;;;4.85;2.63;;;21.40;49.90;;;;;;5016784;28;20378;-35
2021/05/02 00:33:34;;;;;;;3.10;2.13;;;21.30;50.10;;;;;;5043684;28;20070;-35
2021/05/02 00:36:01;;;;;;;2.80;2.30;;;21.30;50.10;;;;;;5035797;28;20082;-35
2021/05/02 00:38:27;;;;;;;3.70;2.35;;;21.30;50.10;;;;;;5054544;28;20029;-35
2021/05/02 00:41:00;;;;;;;2.22;1.98;;;21.30;50.10;;;;;;5036018;28;20037;-50
2021/05/02 00:43:57;;;;;;;2.72;2.35;;;21.30;50.00;;;;;;5036579;28;20060;-35
2021/05/02 00:46:37;;;;;;;2.30;2.05;;;21.30;49.90;;;;;;5030077;28;20029;-35
2021/05/02 00:49:12;;;;;;;3.35;2.38;;;21.20;49.80;;;;;;5045651;28;20033;-35
2021/05/02 00:51:40;;;;;;;3.78;2.47;;;21.20;49.80;;;;;;5029583;28;20029;-41
2021/05/02 00:54:07;;;;;;;2.80;2.28;;;21.20;49.60;;;;;;5027964;28;20036;-35
2021/05/02 00:56:53;;;;;;;3.08;2.22;;;21.20;49.60;;;;;;5030264;28;20367;-35
2021/05/02 00:59:25;;;;;;;2.47;1.88;;;21.20;49.60;;;;;;5043906;28;20060;-36
2021/05/02 01:01:52;;;;;;;;;;;21.30;49.70;;;;;;5027310;28;20038;-36
2021/05/02 01:04:28;;;;;;;3.00;1.90;;;21.20;49.50;;;;;;5029782;28;20295;-40
2021/05/02 01:06:59;;;;;;;2.70;2.10;;;21.20;49.50;;;;;;5032438;28;20724;-50
2021/05/02 01:09:29;;;;;;;4.50;2.22;;;21.20;49.50;;;;;;5046949;28;20025;-35
2021/05/02 01:11:58;;;;;;;3.30;2.55;;;21.20;49.40;;;;;;5043713;28;20029;-48
2021/05/02 01:14:25;;;;;;;3.00;2.50;;;21.20;49.40;;;;;;5047074;28;20029;-35
2021/05/02 01:16:56;;;;;;;2.78;1.92;;;21.20;49.30;;;;;;5027453;28;20029;-35
2021/05/02 01:19:22;;;;;;;4.85;2.20;;;21.20;49.30;;;;;;5047241;28;20032;-35
2021/05/02 01:21:50;;;;;;;5.68;2.22;;;21.20;49.30;;;;;;5044074;28;20752;-39
2021/05/02 01:24:15;;;;;;;4.20;2.20;;;21.20;49.20;;;;;;5044943;28;20727;-35
2021/05/02 01:26:43;;;;;;;3.00;2.50;;;21.20;49.30;;;;;;5043956;28;20112;-35
2021/05/02 01:29:10;;;;;;;7.60;2.45;;;21.10;49.20;;;;;;5041778;28;20474;-36
2021/05/02 01:31:36;;;;;;;4.65;2.40;;;21.20;49.20;;;;;;5044776;28;20108;-35
2021/05/02 01:34:02;;;;;;;2.53;2.03;;;21.10;49.10;;;;;;5044068;28;20105;-35
2021/05/02 01:36:28;;;;;;;3.58;2.40;;;21.10;49.10;;;;;;5047537;28;20499;-40
2021/05/02 01:38:56;;;;;;;4.03;2.20;;;21.20;49.10;;;;;;5026064;28;20029;-50
2021/05/02 01:41:23;;;;;;;4.28;2.28;;;21.10;49.00;;;;;;5026868;28;20028;-35
2021/05/02 01:43:49;;;;;;;3.42;2.47;;;21.10;49.00;;;;;;5029018;28;20060;-35
2021/05/02 01:46:30;;;;;;;4.32;2.13;;;21.10;48.90;;;;;;5046500;28;20024;-35
2021/05/02 01:48:56;;;;;;;4.22;2.40;;;21.10;48.90;;;;;;5046482;28;20500;-50
2021/05/02 01:51:22;;;;;;;4.72;2.53;;;21.10;48.90;;;;;;5045420;28;20131;-35
2021/05/02 01:53:49;;;;;;;5.25;2.60;;;21.10;48.80;;;;;;5042582;28;20045;-39
2021/05/02 01:56:16;;;;;;;3.20;2.20;;;21.10;48.90;;;;;;5041757;28;20216;-35
2021/05/02 01:58:42;;;;;;;3.53;2.15;;;21.10;48.90;;;;;;5030621;28;20466;-35
2021/05/02 02:01:15;;;;;;;3.22;2.13;;;21.10;48.80;;;;;;5044768;28;20389;-40
2021/05/02 02:03:44;;;;;;;3.13;2.20;;;21.10;48.80;;;;;;5043574;28;20382;-42
2021/05/02 02:06:13;;;;;;;2.90;2.25;;;21.10;48.80;;;;;;5041767;28;20024;-35
2021/05/02 02:08:40;;;;;;;2.72;2.15;;;21.10;48.70;;;;;;5042183;28;20044;-35
2021/05/02 02:11:06;;;;;;;3.65;2.15;;;21.10;48.70;;;;;;5032221;28;20078;-35
2021/05/02 02:13:32;;;;;;;2.92;2.30;;;21.10;48.70;;;;;;5030942;28;20377;-35
2021/05/02 02:16:03;;;;;;;2.53;1.95;;;21.10;48.60;;;;;;5031936;28;20029;-50
2021/05/02 02:18:30;;;;;;;3.42;2.40;;;21.10;48.60;;;;;;5033519;28;20096;-36
2021/05/02 02:20:57;;;;;;;2.60;1.83;;;21.10;48.60;;;;;;5029595;28;20028;-49
2021/05/02 02:23:32;;;;;;;3.05;2.33;;;21.10;48.60;;;;;;5033129;28;20120;-35
2021/05/02 02:26:12;;;;;;;4.65;2.15;;;21.10;48.50;;;;;;5043094;28;20045;-50
2021/05/02 02:28:38;;;;;;;4.70;2.03;;;21.10;48.60;;;;;;5042130;28;20656;-40
2021/05/02 02:31:06;;;;;;;2.83;2.17;;;21.10;48.60;;;;;;5044171;28;20032;-35
2021/05/02 02:33:33;;;;;;;3.35;2.40;;;21.10;49.20;;;;;;5042635;28;20463;-35
2021/05/02 02:36:00;;;;;;;3.25;2.40;;;21.10;48.50;;;;;;5044986;28;20027;-37
2021/05/02 02:38:28;;;;;;;4.65;2.38;;;21.00;48.50;;;;;;5042034;28;20488;-34
2021/05/02 02:40:57;;;;;;;3.03;2.10;;;21.00;48.50;;;;;;5032862;28;20039;-50
2021/05/02 02:43:30;;;;;;;3.67;2.47;;;21.10;48.50;;;;;;5030045;28;20474;-35
2021/05/02 02:46:03;;;;;;;2.70;2.50;;;21.00;48.40;;;;;;5039978;28;20029;-50
2021/05/02 02:48:31;;;;;;;4.22;2.35;;;21.00;48.40;;;;;;5045267;28;20107;-34
2021/05/02 02:51:02;;;;;;;4.40;2.67;;;21.10;48.40;;;;;;5047205;28;20114;-49
2021/05/02 02:53:33;;;;;;;3.70;2.60;;;21.00;48.30;;;;;;5051556;28;20072;-35
2021/05/02 02:56:04;;;;;;;3.75;2.50;;;21.10;48.40;;;;;;5033039;28;20120;-36
2021/05/02 02:58:43;;;;;;;4.53;2.45;;;21.00;48.30;;;;;;5016185;28;20108;-34
2021/05/02 03:01:10;;;;;;;2.63;1.90;;;21.00;48.30;;;;;;5031839;28;20471;-34
2021/05/02 03:03:41;;;;;;;3.28;2.47;;;21.00;48.30;;;;;;5039406;28;20042;-35
2021/05/02 03:06:08;;;;;;;3.15;2.25;;;21.00;48.30;;;;;;5043941;28;20030;-34
2021/05/02 03:08:37;;;;;;;4.35;2.13;;;21.00;48.20;;;;;;5014175;28;20037;-34
2021/05/02 03:11:05;;;;;;;2.78;2.40;;;21.00;48.20;;;;;;5037874;28;20090;-35
2021/05/02 03:13:31;;;;;;;3.25;2.33;;;21.00;48.20;;;;;;5033506;28;20029;-35
2021/05/02 03:16:01;;;;;;;2.92;2.28;;;21.00;48.20;;;;;;5039786;28;20033;-48
2021/05/02 03:18:30;;;;;;;5.60;2.10;;;21.00;48.10;;;;;;5038351;28;20044;-36
2021/05/02 03:21:02;;;;;;;4.45;2.35;;;21.00;48.20;;;;;;5033553;28;20112;-49
2021/05/02 03:23:44;;;;;;;2.72;2.17;;;21.00;48.10;;;;;;5014245;28;20120;-34
2021/05/02 03:26:12;;;;;;;4.18;2.40;;;21.00;48.10;;;;;;5031238;28;20137;-34
2021/05/02 03:28:56;;;;;;;4.95;2.17;;;21.00;48.10;;;;;;5032018;28;20029;-35
2021/05/02 03:31:29;;;;;;;4.32;2.60;;;21.00;48.10;;;;;;5031572;28;20042;-35
2021/05/02 03:34:00;;;;;;;4.28;2.28;;;21.00;48.10;;;;;;5049953;28;20040;-45
2021/05/02 03:36:50;;;;;;;3.30;2.50;;;21.00;48.00;;;;;;5051278;28;20021;-35
2021/05/02 03:39:16;;;;;;;2.70;2.00;;;21.00;48.00;;;;;;5050175;28;20108;-34
2021/05/02 03:41:42;;;;;;;3.80;2.10;;;21.00;48.00;;;;;;5026159;28;20171;-34
2021/05/02 03:44:07;;;;;;;2.88;2.47;;;21.00;48.00;;;;;;5047707;28;20037;-42
2021/05/02 03:46:34;;;;;;;3.72;1.85;;;21.00;48.10;;;;;;5039851;28;20033;-35
2021/05/02 03:49:03;;;;;;;3.22;2.00;;;21.00;48.00;;;;;;5031412;28;20025;-40
2021/05/02 03:51:30;;;;;;;2.95;2.10;;;21.00;48.00;;;;;;5038172;28;20041;-34
2021/05/02 03:53:57;;;;;;;2.85;2.53;;;21.00;47.90;;;;;;5014778;28;20069;-49
2021/05/02 03:56:32;;;;;;;2.88;2.20;;;21.00;47.90;;;;;;5031080;28;20541;-35
2021/05/02 03:59:15;;;;;;;3.35;2.20;;;21.00;47.90;;;;;;5031127;28;20033;-50
2021/05/02 04:01:58;;;;;;;3.75;2.22;;;21.00;47.90;;;;;;5016265;28;20040;-34
2021/05/02 04:04:34;;;;;;;3.88;2.50;;;21.00;47.90;;;;;;5054275;28;20076;-34
2021/05/02 04:07:07;;;;;;;3.83;1.98;;;21.00;47.80;;;;;;5039472;28;20068;-45
2021/05/02 04:09:34;;;;;;;3.28;2.45;;;21.00;47.80;;;;;;5043969;28;20029;-34
2021/05/02 04:11:59;;;;;;;2.92;2.50;;;21.00;47.80;;;;;;5049488;28;20036;-49
2021/05/02 04:14:25;;;;;;;4.30;2.20;;;20.90;47.70;;;;;;5037238;28;20029;-35
2021/05/02 04:16:55;;;;;;;2.83;2.50;;;21.00;47.80;;;;;;5055419;28;20404;-34
2021/05/02 04:19:21;;;;;;;2.58;2.28;;;21.00;47.80;;;;;;5048990;28;20033;-37
2021/05/02 04:21:47;;;;;;;3.70;2.30;;;20.90;47.70;;;;;;5041898;28;20041;-35
2021/05/02 04:24:13;;;;;;;4.43;2.10;;;21.00;47.80;;;;;;5048889;28;20048;-35
2021/05/02 04:26:42;;;;;;;3.90;2.30;;;20.90;47.70;;;;;;5054309;28;20403;-35
2021/05/02 04:29:08;;;;;;;3.78;2.40;;;20.90;47.60;;;;;;5053824;28;20116;-35
2021/05/02 04:31:34;;;;;;;3.80;2.20;;;20.90;47.70;;;;;;5039530;28;20116;-35
2021/05/02 04:33:59;;;;;;;2.60;2.03;;;20.90;47.70;;;;;;5044177;28;20028;-50
2021/05/02 04:36:25;;;;;;;3.80;2.35;;;21.00;47.70;;;;;;5036130;28;20030;-35
2021/05/02 04:38:50;;;;;;;2.20;2.00;;;20.90;47.60;;;;;;5048932;28;20025;-35
2021/05/02 04:41:16;;;;;;;2.90;2.50;;;20.90;47.60;;;;;;5042628;28;20026;-41
2021/05/02 04:43:42;;;;;;;3.03;2.20;;;20.90;47.60;;;;;;5035266;28;20108;-35
2021/05/02 04:46:11;;;;;;;2.33;1.90;;;20.90;47.60;;;;;;5032323;28;20056;-35
2021/05/02 04:48:38;;;;;;;2.85;2.25;;;20.90;47.60;;;;;;5039117;28;20036;-34
2021/05/02 04:51:04;;;;;;;4.07;2.20;;;20.90;47.60;;;;;;5052244;28;20079;-35
2021/05/02 04:53:30;;;;;;;2.38;2.15;;;20.90;47.60;;;;;;5035672;28;20045;-35
2021/05/02 04:55:55;;;;;;;3.55;2.30;;;20.90;47.60;;;;;;5054391;28;20111;-34
2021/05/02 04:58:21;;;;;;;3.58;2.50;;;20.90;47.60;;;;;;5045283;28;20025;-34
2021/05/02 05:00:46;;;;;;;3.17;2.10;;;20.90;47.60;;;;;;5053509;28;20025;-34
2021/05/02 05:03:12;;;;;;;3.75;2.35;;;20.90;47.60;;;;;;5053237;28;20040;-33
2021/05/02 05:05:38;;;;;;;3.15;2.58;;;20.90;48.20;;;;;;5053626;28;20025;-34
2021/05/02 05:08:04;;;;;;;3.60;2.38;;;20.90;47.60;;;;;;5035618;28;20029;-36
2021/05/02 05:10:29;;;;;;;5.18;2.55;;;20.90;47.60;;;;;;5035236;28;20390;-36
2021/05/02 05:12:55;;;;;;;3.03;1.98;;;20.90;47.60;;;;;;5050559;28;20141;-35
2021/05/02 05:15:21;;;;;;;3.08;2.03;;;20.90;47.60;;;;;;5033531;28;20021;-35
2021/05/02 05:17:46;;;;;;;3.10;2.40;;;20.90;47.60;;;;;;5016260;28;20029;-35
2021/05/02 05:20:12;;;;;;;3.33;2.25;;;20.90;47.60;;;;;;5027604;28;20039;-35
2021/05/02 05:22:38;;;;;;;3.10;1.90;;;20.90;47.50;;;;;;5020329;28;20393;-35
2021/05/02 05:25:04;;;;;;;2.30;1.90;;;20.90;47.50;;;;;;5033688;28;20029;-36
2021/05/02 05:27:30;;;;;;;2.33;2.05;;;20.90;47.50;;;;;;5033787;28;20029;-45
2021/05/02 05:29:55;;;;;;;4.70;2.55;;;20.90;47.50;;;;;;5033796;28;20079;-44
2021/05/02 05:32:21;;;;;;;2.78;2.20;;;20.90;47.50;;;;;;5025718;28;20029;-48
2021/05/02 05:34:47;;;;;;;2.55;2.35;;;20.90;47.50;;;;;;5043485;28;20502;-35
2021/05/02 05:37:12;;;;;;;2.50;2.25;;;20.90;47.50;;;;;;5015247;28;20458;-35
2021/05/02 05:39:38;;;;;;;4.10;2.47;;;20.90;47.50;;;;;;5016216;28;20064;-35
2021/05/02 05:42:07;;;;;;;2.63;2.28;;;20.90;47.40;;;;;;5049433;28;20033;-37
2021/05/02 05:44:34;;;;;;;2.80;2.40;;;20.90;47.40;;;;;;5033765;28;20489;-35
2021/05/02 05:46:59;;;;;;;3.38;2.08;;;20.90;47.50;;;;;;5016086;28;20397;-47
2021/05/02 05:49:25;;;;;;;3.17;2.30;;;20.90;47.50;;;;;;5034321;28;20104;-35
2021/05/02 05:51:53;;;;;;;3.08;2.17;;;20.90;47.40;;;;;;5033529;28;20039;-35
2021/05/02 05:54:19;;;;;;;2.78;2.15;;;20.90;47.40;;;;;;5047410;28;20037;-35
2021/05/02 05:56:45;;;;;;;3.25;2.00;;;20.90;47.40;;;;;;5034536;28;20032;-35
2021/05/02 05:59:12;;;;;;;2.30;2.00;;;20.90;47.30;;;;;;5051791;28;20420;-35
2021/05/02 06:01:39;;;;;;;3.13;2.08;;;20.90;47.30;;;;;;5034977;28;20043;-35
2021/05/02 06:04:04;;;;;;;2.35;2.03;;;20.90;47.30;;;;;;5045437;28;20029;-49
2021/05/02 06:06:33;;;;;;;3.00;2.70;;;20.90;47.30;;;;;;5037772;28;20025;-35
2021/05/02 06:09:01;;;;;;;2.90;2.40;;;20.90;47.30;;;;;;5033425;28;20029;-35
2021/05/02 06:11:29;;;;;;;2.40;2.13;;;20.90;47.30;;;;;;5034524;28;20037;-35
2021/05/02 06:13:55;;;;;;;3.55;2.42;;;20.80;47.20;;;;;;5034926;28;20071;-35
2021/05/02 06:16:20;;;;;;;3.70;2.30;;;20.80;47.20;;;;;;5032486;28;20052;-36
2021/05/02 06:18:46;;;;;;;2.88;2.17;;;20.80;47.30;;;;;;5033883;28;20037;-35
2021/05/02 06:21:12;;;;;;;2.33;2.10;;;20.90;47.30;;;;;;5049179;28;20094;-35
2021/05/02 06:23:37;;;;;;;3.58;2.22;;;20.80;47.20;;;;;;5032766;28;20461;-35
2021/05/02 06:26:03;;;;;;;3.78;1.92;;;20.90;47.20;;;;;;5044942;28;20041;-51
2021/05/02 06:28:28;;;;;;;2.60;2.08;;;20.90;47.20;;;;;;5041991;28;20056;-35
2021/05/02 06:30:54;;;;;;;2.95;1.90;;;20.80;47.10;;;;;;5046664;28;20410;-37
2021/05/02 06:33:20;;;;;;;2.78;2.08;;;20.90;47.20;;;;;;5047577;28;20036;-40
2021/05/02 06:35:46;;;;;;;4.18;2.28;;;20.80;47.10;;;;;;5030486;28;20024;-35
2021/05/02 06:38:12;;;;;;;2.97;1.98;;;20.80;47.10;;;;;;5045506;28;20031;-40
2021/05/02 06:40:38;;;;;;;2.88;2.00;;;20.90;47.20;;;;;;5046466;28;20033;-35
2021/05/02 06:43:03;;;;;;;3.10;2.00;;;20.90;47.20;;;;;;5047474;28;20029;-50
2021/05/02 06:45:29;;;;;;;3.50;2.13;;;20.90;47.20;;;;;;5046353;28;20032;-35
2021/05/02 06:47:55;;;;;;;1.95;1.77;;;20.90;47.20;;;;;;5043135;28;20378;-35
2021/05/02 06:50:21;;;;;;;2.70;1.90;;;20.90;47.10;;;;;;5044015;28;20165;-42
2021/05/02 06:52:46;;;;;;;2.85;1.80;;;20.90;47.20;;;;;;5036363;28;20052;-35
2021/05/02 06:55:12;;;;;;;6.65;2.30;;;20.90;47.20;;;;;;5026785;28;20033;-35
2021/05/02 06:57:37;;;;;;;3.88;1.70;;;20.90;47.10;;;;;;5030918;28;20547;-35
2021/05/02 07:00:04;;;;;;;2.88;1.80;;;20.90;47.10;;;;;;5012078;28;20029;-50
2021/05/02 07:02:30;;;;;;;3.05;2.08;;;20.80;47.10;;;;;;5022386;28;20029;-35
2021/05/02 07:04:55;;;;;;;2.72;2.00;;;20.90;47.10;;;;;;5020025;28;20109;-35
2021/05/02 07:07:21;;;;;;;3.88;2.30;;;20.80;47.00;;;;;;5023160;28;20056;-40
2021/05/02 07:09:47;;;;;;;2.78;2.17;;;20.90;47.10;;;;;;5022811;28;20032;-35
2021/05/02 07:12:13;;;;;;;2.10;1.90;;;20.90;47.10;;;;;;5020663;28;20030;-36
2021/05/02 07:14:39;;;;;;;3.03;2.05;;;20.90;47.10;;;;;;5019460;28;20032;-34
2021/05/02 07:17:04;;;;;;;2.58;1.90;;;20.90;47.10;;;;;;5017698;28;20025;-51
2021/05/02 07:19:30;;;;;;;2.45;2.03;;;20.80;47.00;;;;;;5005451;28;20030;-35
2021/05/02 07:22:05;;;;;;;8.88;6.95;;;20.80;47.10;;;;;;5024115;28;20033;-36
2021/05/02 07:24:30;;;;;;;9.52;7.82;;;20.50;42.80;;;;;;5022238;28;20026;-36
2021/05/02 07:26:57;;;;;;;11.70;8.02;;;18.90;44.30;;;;;;5019962;28;20360;-35
2021/05/02 07:29:22;;;;;;;11.32;8.57;;;17.70;45.50;;;;;;5018963;28;20049;-42
2021/05/02 07:31:48;;;;;;;10.88;9.13;;;17.30;47.10;;;;;;5006168;28;20443;-36
2021/05/02 07:34:14;;;;;;;11.75;8.95;;;17.30;47.80;;;;;;5027224;28;20029;-35
2021/05/02 07:36:40;;;;;;;10.80;8.48;;;17.10;48.80;;;;;;5014133;28;20049;-35
2021/05/02 07:39:09;;;;;;;11.93;8.45;;;17.10;49.10;;;;;;5012028;28;20030;-45
2021/05/02 07:41:35;;;;;;;10.18;8.65;;;17.10;49.10;;;;;;5006024;28;20117;-36
2021/05/02 07:44:01;;;;;;;10.98;9.07;;;17.20;48.60;;;;;;5015388;28;20132;-36
2021/05/02 07:46:27;;;;;;;11.27;8.77;;;17.20;47.90;;;;;;5027374;28;20355;-36
2021/05/02 07:48:52;;;;;;;11.65;8.30;;;17.00;47.20;;;;;;5000093;28;20037;-40
2021/05/02 07:51:18;;;;;;;13.25;9.10;;;16.80;47.70;;;;;;5013623;28;20136;-37
2021/05/02 07:53:44;;;;;;;9.65;8.07;;;16.80;49.10;;;;;;5042291;28;20052;-37
2021/05/02 07:56:09;;;;;;;10.65;8.25;;;16.60;48.60;;;;;;5026768;28;20086;-41
2021/05/02 07:58:35;;;;;;;11.07;6.90;;;16.50;48.20;;;;;;5029962;28;20025;-44
2021/05/02 08:01:01;;;;;;;10.70;6.00;;;17.00;47.80;;;;;;5042093;28;20064;-36
2021/05/02 08:03:27;;;;;;;7.45;6.22;;;17.80;46.20;;;;;;5044185;28;20532;-35
2021/05/02 08:05:52;;;;;;;7.32;4.80;;;18.30;45.00;;;;;;5030941;28;20026;-35
2021/05/02 08:08:19;;;;;;;7.10;5.07;;;18.70;44.50;;;;;;5025821;28;20116;-36
2021/05/02 08:10:44;;;;;;;6.63;4.43;;;18.90;44.20;;;;;;5043541;28;20025;-35
2021/05/02 08:13:10;;;;;;;7.82;5.03;;;19.00;43.80;;;;;;5044271;28;20040;-36
2021/05/02 08:15:36;;;;;;;6.78;3.90;;;19.10;43.60;;;;;;5037739;28;20025;-35
2021/05/02 08:18:02;;;;;;;9.43;4.53;;;19.20;43.20;;;;;;5046256;28;20033;-35
2021/05/02 08:20:28;;;;;;;7.30;3.85;;;19.30;43.00;;;;;;5039301;28;20037;-35
2021/05/02 08:22:53;;;;;;;6.72;3.90;;;19.40;43.10;;;;;;5032191;28;20032;-43
2021/05/02 08:25:20;;;;;;;8.23;4.32;;;19.50;42.90;;;;;;5043097;28;20033;-42
2021/05/02 08:27:47;;;;;;;6.20;4.85;;;19.50;42.60;;;;;;5045561;28;20029;-36
2021/05/02 08:30:14;;;;;;;6.97;4.85;;;19.50;41.90;;;;;;5021487;28;20099;-43
2021/05/02 08:32:40;;;;;;;6.47;4.43;;;19.50;42.00;;;;;;5045950;28;20037;-42
2021/05/02 08:35:06;;;;;;;6.65;4.13;;;19.50;41.60;;;;;;5020741;28;20048;-54
2021/05/02 08:37:32;;;;;;;8.45;4.97;;;19.40;41.70;;;;;;5046266;28;20033;-36
2021/05/02 08:39:58;;;;;;;6.88;4.38;;;19.50;41.30;;;;;;5046021;28;20033;-36
2021/05/02 08:42:24;;;;;;;10.40;4.97;;;19.60;42.40;;;;;;5019273;28;20021;-39
2021/05/02 08:44:51;;;;;;;9.05;4.70;;;19.70;41.60;;;;;;5030651;28;20627;-39
2021/05/02 08:47:17;;;;;;;5.45;4.25;;;19.70;41.70;;;;;;5043633;28;20091;-37
2021/05/02 08:49:44;;;;;;;7.47;5.10;;;19.80;42.00;;;;;;5047369;28;20023;-40
2021/05/02 08:52:10;;;;;;;7.47;5.13;;;19.80;42.40;;;;;;5045716;28;20459;-45
2021/05/02 08:54:36;;;;;;;5.43;4.18;;;19.90;42.80;;;;;;5049076;28;20439;-36
2021/05/02 08:57:02;;;;;;;7.15;3.80;;;20.10;46.10;;;;;;5047657;28;20041;-47
2021/05/02 08:59:28;;;;;;;9.10;5.03;;;20.30;44.00;;;;;;5048498;28;20029;-36
2021/05/02 09:01:58;;;;;;;5.22;4.03;;;20.40;41.10;;;;;;5048295;28;20043;-36
2021/05/02 09:04:24;;;;;;;7.10;4.25;;;20.20;41.50;;;;;;5046049;28;20029;-45
2021/05/02 09:06:50;;;;;;;6.55;4.63;;;20.20;42.00;;;;;;5031139;28;20029;-39
2021/05/02 09:09:16;;;;;;;5.25;4.70;;;20.20;41.70;;;;;;5044218;28;20029;-47
2021/05/02 09:11:43;;;;;;;7.05;3.88;;;20.20;40.90;;;;;;5027163;28;20433;-41
2021/05/02 09:14:21;;;;;;;4.18;3.75;;;20.30;41.30;;;;;;5047615;28;20496;-37
2021/05/02 09:16:54;;;;;;;6.53;3.90;;;20.30;40.90;;;;;;5032437;28;20108;-37
2021/05/02 09:19:24;;;;;;;6.57;3.30;;;20.30;41.10;;;;;;5048542;28;20040;-37
2021/05/02 09:21:51;;;;;;;6.22;4.18;;;20.30;40.90;;;;;;5045225;28;20394;-38
2021/05/02 09:24:21;;;;;;;5.72;4.28;;;20.20;40.00;;;;;;5047260;28;20087;-37
2021/05/02 09:27:06;;;;;;;9.00;3.90;;;20.20;40.20;;;;;;5033111;28;20039;-37
2021/05/02 09:29:34;;;;;;;4.80;4.05;;;20.20;40.40;;;;;;5026234;28;20073;-36
2021/05/02 09:32:01;;;;;;;6.85;4.28;;;20.20;40.00;;;;;;5048921;28;20067;-37
2021/05/02 09:34:27;;;;;;;6.10;3.97;;;20.20;40.20;;;;;;5017801;28;20359;-37
2021/05/02 09:36:56;;;;;;;8.43;4.05;;;20.20;39.70;;;;;;5046194;28;20763;-40
2021/05/02 09:39:50;;;;;;;8.65;4.57;;;20.30;40.30;;;;;;5045986;28;20036;-37
2021/05/02 09:42:20;;;;;;;9.27;4.10;;;20.30;40.20;;;;;;5039866;28;20032;-40
2021/05/02 09:44:54;;;;;;;8.65;3.65;;;20.30;40.10;;;;;;5043927;28;20040;-36
2021/05/02 09:47:29;;;;;;;6.15;3.80;;;20.30;40.30;;;;;;5023892;28;20037;-36
2021/05/02 09:50:18;;;;;;;8.90;4.40;;;20.30;40.20;;;;;;5027773;28;20103;-37
2021/05/02 09:53:05;;;;;;;7.05;4.55;;;20.40;41.00;;;;;;5043684;28;20049;-37
2021/05/02 09:55:39;;;;;;;10.18;5.22;;;20.40;39.10;;;;;;5019699;28;20037;-36
2021/05/02 10:00:43;;;;;;;10.15;5.15;;;20.30;39.60;;;;;;5044218;28;20478;-37
2021/05/02 10:03:14;;;;;;;14.02;4.30;;;20.30;38.90;;;;;;5022642;28;20029;-52
2021/05/02 10:06:02;;;;;;;14.10;4.67;;;20.30;39.30;;;;;;5040391;28;20071;-41
2021/05/02 10:08:35;;;;;;;6.03;4.47;;;20.40;39.40;;;;;;5033801;28;20048;-36
2021/05/02 10:11:06;;;;;;;7.88;4.47;;;20.40;39.50;;;;;;5024001;28;20052;-36
2021/05/02 10:13:38;;;;;;;9.18;4.32;;;20.40;39.30;;;;;;5035797;28;20482;-36
2021/05/02 10:16:05;;;;;;;8.50;4.50;;;20.40;39.70;;;;;;5019998;28;20029;-53
2021/05/02 10:18:31;;;;;;;10.45;4.15;;;20.30;39.40;;;;;;5037574;28;20039;-36
2021/05/02 10:20:57;;;;;;;6.22;4.18;;;20.30;39.40;;;;;;5040106;28;20033;-36
2021/05/02 10:23:23;;;;;;;6.65;4.03;;;20.30;39.50;;;;;;5045799;28;20060;-36
2021/05/02 10:25:50;;;;;;;9.73;4.45;;;20.40;39.80;;;;;;5039592;28;20103;-36
2021/05/02 10:28:17;;;;;;;7.72;3.78;;;20.40;39.50;;;;;;5045090;28;20033;-36
2021/05/02 10:30:49;;;;;;;5.00;3.42;;;20.40;39.40;;;;;;5037261;28;20038;-36
2021/05/02 10:33:15;;;;;;;9.93;3.65;;;20.50;39.80;;;;;;5042525;28;20029;-37
2021/05/02 10:35:54;;;;;;;5.07;3.95;;;20.50;39.80;;;;;;5041677;28;20466;-36
2021/05/02 10:38:53;;;;;;;5.63;4.50;;;20.40;38.50;;;;;;5034557;28;20487;-37
2021/05/02 10:41:35;;;;;;;8.75;4.40;;;20.30;38.50;;;;;;5036395;28;20029;-38
2021/05/02 10:44:06;;;;;;;5.78;4.32;;;20.30;38.80;;;;;;5040617;28;20378;-36
2021/05/02 10:46:44;;;;;;;6.03;3.40;;;20.30;38.00;;;;;;5022448;28;20037;-36
2021/05/02 10:49:19;;;;;;;7.35;4.22;;;20.30;38.00;;;;;;5040389;28;20109;-36
2021/05/02 10:51:53;;;;;;;7.30;4.25;;;20.30;37.70;;;;;;5039356;28;20104;-36
2021/05/02 10:54:22;;;;;;;6.22;4.28;;;20.20;37.40;;;;;;5046322;28;20078;-36
2021/05/02 10:56:56;;;;;;;5.68;3.38;;;20.30;37.00;;;;;;5041960;28;20033;-37
2021/05/02 10:59:47;;;;;;;7.18;3.80;;;20.30;37.10;;;;;;5038800;28;20052;-36
2021/05/02 11:02:42;;;;;;;5.05;3.67;;;20.30;37.00;;;;;;5041248;28;20048;-36
2021/05/02 11:05:11;;;;;;;5.53;4.00;;;20.30;37.00;;;;;;5043148;28;20044;-46
2021/05/02 11:07:45;;;;;;;6.28;3.88;;;20.30;36.80;;;;;;5045548;28;20027;-36
2021/05/02 11:10:13;;;;;;;7.78;4.47;;;20.30;36.70;;;;;;5034299;28;20084;-36
2021/05/02 11:12:39;;;;;;;4.97;4.25;;;20.40;36.60;;;;;;5029120;28;20033;-36
2021/05/02 11:15:23;;;;;;;7.55;4.38;;;20.40;37.20;;;;;;5044201;28;20025;-52
2021/05/02 11:17:51;;;;;;;4.15;3.50;;;20.30;36.60;;;;;;5046918;28;20021;-36
2021/05/02 11:20:50;;;;;;;5.43;3.83;;;20.30;36.60;;;;;;5028896;28;20087;-36
2021/05/02 11:23:17;;;;;;;5.15;3.80;;;20.40;36.60;;;;;;5041849;28;20039;-36
2021/05/02 11:25:59;;;;;;;5.88;4.13;;;20.40;36.60;;;;;;5041320;28;20025;-36
2021/05/02 11:28:56;;;;;;;5.03;4.00;;;20.30;36.20;;;;;;5043658;28;20629;-36
2021/05/02 11:31:42;;;;;;;4.72;3.90;;;20.40;36.90;;;;;;5026831;28;20459;-36
2021/05/02 11:34:07;;;;;;;5.78;4.18;;;20.40;36.10;;;;;;5040092;28;20037;-52
2021/05/02 11:36:40;;;;;;;6.57;4.93;;;20.40;36.50;;;;;;5039960;28;20071;-36
2021/05/02 11:39:27;;;;;;;5.72;4.25;;;20.10;36.10;;;;;;5027894;28;20021;-52
2021/05/02 11:42:04;;;;;;;4.45;2.97;;;20.20;36.80;;;;;;5038770;28;20033;-37
2021/05/02 11:44:33;;;;;;;4.03;2.80;;;20.40;37.40;;;;;;5023526;28;20037;-44
2021/05/02 11:47:18;;;;;;;4.22;2.63;;;20.60;37.80;;;;;;5031119;28;20148;-36
2021/05/02 11:49:43;;;;;;;2.40;1.92;;;20.60;38.30;;;;;;5039327;28;20023;-36
2021/05/02 11:52:09;;;;;;;3.88;2.30;;;20.70;39.00;;;;;;5025501;28;20053;-46
2021/05/02 11:54:43;;;;;;;2.90;1.98;;;20.80;39.60;;;;;;5015873;28;20033;-36
2021/05/02 11:57:09;;;;;;;6.97;2.50;;;20.80;40.00;;;;;;5042294;28;20389;-37
2021/05/02 11:59:48;;;;;;;5.63;2.20;;;20.90;40.30;;;;;;5043299;28;20033;-37
2021/05/02 12:02:13;;;;;;;2.83;2.08;;;20.90;41.10;;;;;;5025784;28;20040;-36
2021/05/02 12:04:40;;;;;;;5.22;2.17;;;20.90;40.60;;;;;;5044141;28;20028;-36
2021/05/02 12:07:06;;;;;;;3.72;1.88;;;21.00;40.70;;;;;;5028566;28;20726;-53
2021/05/02 12:09:32;;;;;;;4.00;1.85;;;21.00;40.80;;;;;;5025994;28;20036;-37
2021/05/02 12:11:59;;;;;;;9.50;2.17;;;21.00;40.90;;;;;;5041279;28;20037;-36
2021/05/02 12:14:31;;;;;;;3.33;2.13;;;21.00;41.90;;;;;;5040309;28;20615;-37
2021/05/02 12:16:59;;;;;;;5.07;2.20;;;21.00;41.50;;;;;;5039987;28;20548;-38
2021/05/02 12:19:35;;;;;;;2.85;2.40;;;21.00;41.60;;;;;;5037334;28;20033;-36
2021/05/02 12:22:03;;;;;;;3.53;2.05;;;21.00;41.60;;;;;;5045469;28;20081;-36
2021/05/02 12:24:33;;;;;;;1.90;1.80;;;21.00;41.50;;;;;;5029125;28;20021;-36
2021/05/02 12:27:06;;;;;;;3.05;1.60;;;21.00;41.50;;;;;;5029975;28;20377;-36
2021/05/02 12:29:34;;;;;;;3.20;2.70;;;21.00;41.60;;;;;;5039632;28;20363;-36
2021/05/02 12:32:08;;;;;;;3.05;2.05;;;21.00;41.50;;;;;;5030177;28;20386;-37
2021/05/02 12:34:38;;;;;;;4.15;2.72;;;21.00;41.60;;;;;;5047079;28;20021;-36
2021/05/02 12:37:17;;;;;;;3.63;2.45;;;21.00;41.30;;;;;;5040494;28;20099;-36
2021/05/02 12:39:44;;;;;;;4.03;2.70;;;21.00;41.30;;;;;;5026213;28;20033;-36
2021/05/02 12:42:10;;;;;;;5.45;2.33;;;21.00;41.40;;;;;;5049223;28;20074;-37
2021/05/02 12:44:38;;;;;;;3.40;2.20;;;21.00;41.70;;;;;;5042961;28;20029;-36
2021/05/02 12:47:15;;;;;;;3.65;1.80;;;21.00;41.40;;;;;;5031040;28;20029;-36
2021/05/02 12:49:54;;;;;;;3.03;1.60;;;21.00;41.40;;;;;;5048086;28;20048;-36
2021/05/02 12:52:20;;;;;;;2.75;1.90;;;21.00;41.50;;;;;;5035830;28;20099;-45
2021/05/02 12:54:46;;;;;;;2.88;2.10;;;21.00;41.60;;;;;;5022059;28;20099;-36
2021/05/02 12:57:16;;;;;;;2.72;1.40;;;21.00;41.70;;;;;;5025632;28;20519;-42
2021/05/02 12:59:52;;;;;;;1.92;1.30;;;21.10;41.60;;;;;;5025100;28;20026;-36